sensor_id;sensor_type;location;lat;lon;timestamp;pressure;altitude;pressure_sealevel;temperature;humidity
40692;BME280;26377;53.344;14.886;2022-10-28T00:01:22;102070.48;;;13.41;76.32
40692;BME280;26377;53.344;14.886;2022-10-28T00:03:52;102068.16;;;13.44;76.31
40692;BME280;26377;53.344;14.886;2022-10-28T00:06:32;102064.06;;;13.45;76.34
40692;BME280;26377;53.344;14.886;2022-10-28T00:09:04;102057.83;;;13.46;76.36
40692;BME280;26377;53.344;14.886;2022-10-28T00:11:33;102051.94;;;13.48;76.36
40692;BME280;26377;53.344;14.886;2022-10-28T00:14:03;102054.09;;;13.50;76.40
40692;BME280;26377;53.344;14.886;2022-10-28T00:16:33;102056.67;;;13.52;76.38
40692;BME280;26377;53.344;14.886;2022-10-28T00:19:03;102045.94;;;13.53;76.39
40692;BME280;26377;53.344;14.886;2022-10-28T00:21:34;102045.42;;;13.55;76.40
40692;BME280;26377;53.344;14.886;2022-10-28T00:24:02;102040.94;;;13.56;76.44
40692;BME280;26377;53.344;14.886;2022-10-28T00:26:32;102043.55;;;13.57;76.45
40692;BME280;26377;53.344;14.886;2022-10-28T00:29:04;102031.94;;;13.58;76.47
40692;BME280;26377;53.344;14.886;2022-10-28T00:31:35;102027.03;;;13.59;76.45
40692;BME280;26377;53.344;14.886;2022-10-28T00:34:08;102029.27;;;13.58;76.42
40692;BME280;26377;53.344;14.886;2022-10-28T00:36:42;102032.81;;;13.59;76.47
40692;BME280;26377;53.344;14.886;2022-10-28T00:39:21;102027.94;;;13.58;76.47
40692;BME280;26377;53.344;14.886;2022-10-28T00:41:57;102025.70;;;13.59;76.49
40692;BME280;26377;53.344;14.886;2022-10-28T00:44:54;102021.60;;;13.61;76.52
40692;BME280;26377;53.344;14.886;2022-10-28T00:47:43;102016.69;;;13.62;76.48
40692;BME280;26377;53.344;14.886;2022-10-28T00:53:28;102009.47;;;13.64;76.53
40692;BME280;26377;53.344;14.886;2022-10-28T00:55:59;102005.41;;;13.65;76.53
40692;BME280;26377;53.344;14.886;2022-10-28T00:58:29;102002.36;;;13.64;76.54
40692;BME280;26377;53.344;14.886;2022-10-28T01:00:56;102004.47;;;13.66;76.58
40692;BME280;26377;53.344;14.886;2022-10-28T01:03:25;101992.02;;;13.67;76.54
40692;BME280;26377;53.344;14.886;2022-10-28T01:05:54;101993.73;;;13.68;76.56
40692;BME280;26377;53.344;14.886;2022-10-28T01:08:25;101986.68;;;13.67;76.54
40692;BME280;26377;53.344;14.886;2022-10-28T01:11:08;101987.07;;;13.68;76.53
40692;BME280;26377;53.344;14.886;2022-10-28T01:13:59;101983.47;;;13.69;76.58
40692;BME280;26377;53.344;14.886;2022-10-28T01:46:42;101970.34;;;13.54;76.50
40692;BME280;26377;53.344;14.886;2022-10-28T01:49:23;101977.95;;;13.53;76.54
40692;BME280;26377;53.344;14.886;2022-10-28T01:51:56;101971.84;;;13.51;76.54
40692;BME280;26377;53.344;14.886;2022-10-28T01:54:28;101959.52;;;13.49;76.52
40692;BME280;26377;53.344;14.886;2022-10-28T01:56:59;101953.98;;;13.43;76.50
40692;BME280;26377;53.344;14.886;2022-10-28T01:59:32;101950.53;;;13.41;76.49
40692;BME280;26377;53.344;14.886;2022-10-28T02:02:02;101951.44;;;13.40;76.55
40692;BME280;26377;53.344;14.886;2022-10-28T02:04:29;101947.92;;;13.40;76.60
40692;BME280;26377;53.344;14.886;2022-10-28T02:06:59;101952.70;;;13.42;76.63
40692;BME280;26377;53.344;14.886;2022-10-28T02:12:36;101951.31;;;13.43;76.71
40692;BME280;26377;53.344;14.886;2022-10-28T02:18:22;101956.09;;;13.45;76.77
40692;BME280;26377;53.344;14.886;2022-10-28T02:26:33;101951.03;;;13.49;76.81
40692;BME280;26377;53.344;14.886;2022-10-28T02:31:57;101947.12;;;13.48;76.70
40692;BME280;26377;53.344;14.886;2022-10-28T02:34:32;101932.04;;;13.47;76.69
40692;BME280;26377;53.344;14.886;2022-10-28T02:37:04;101928.10;;;13.45;76.69
40692;BME280;26377;53.344;14.886;2022-10-28T02:39:40;101930.77;;;13.45;76.68
40692;BME280;26377;53.344;14.886;2022-10-28T02:42:12;101922.93;;;13.42;76.69
40692;BME280;26377;53.344;14.886;2022-10-28T02:44:42;101922.54;;;13.41;76.67
40692;BME280;26377;53.344;14.886;2022-10-28T02:47:22;101922.61;;;13.40;76.68
40692;BME280;26377;53.344;14.886;2022-10-28T02:49:54;101918.34;;;13.36;76.71
40692;BME280;26377;53.344;14.886;2022-10-28T02:52:26;101912.13;;;13.35;76.74
40692;BME280;26377;53.344;14.886;2022-10-28T02:54:56;101900.20;;;13.34;76.68
40692;BME280;26377;53.344;14.886;2022-10-28T02:57:31;101911.35;;;13.33;76.67
40692;BME280;26377;53.344;14.886;2022-10-28T02:59:59;101915.97;;;13.30;76.61
40692;BME280;26377;53.344;14.886;2022-10-28T03:02:29;101913.81;;;13.28;76.59
40692;BME280;26377;53.344;14.886;2022-10-28T03:04:57;101913.48;;;13.25;76.62
40692;BME280;26377;53.344;14.886;2022-10-28T03:07:24;101907.77;;;13.24;76.60
40692;BME280;26377;53.344;14.886;2022-10-28T03:09:51;101908.22;;;13.24;76.55
40692;BME280;26377;53.344;14.886;2022-10-28T03:12:18;101894.63;;;13.20;76.52
40692;BME280;26377;53.344;14.886;2022-10-28T03:14:47;101896.06;;;13.18;76.56
40692;BME280;26377;53.344;14.886;2022-10-28T03:17:17;101889.07;;;13.16;76.57
40692;BME280;26377;53.344;14.886;2022-10-28T03:19:44;101894.91;;;13.14;76.52
40692;BME280;26377;53.344;14.886;2022-10-28T03:22:12;101892.80;;;13.12;76.53
40692;BME280;26377;53.344;14.886;2022-10-28T03:24:39;101899.52;;;13.10;76.57
40692;BME280;26377;53.344;14.886;2022-10-28T03:27:06;101896.92;;;13.09;76.58
40692;BME280;26377;53.344;14.886;2022-10-28T03:29:35;101898.31;;;13.07;76.58
40692;BME280;26377;53.344;14.886;2022-10-28T03:32:04;101903.80;;;13.04;76.58
40692;BME280;26377;53.344;14.886;2022-10-28T03:34:32;101902.98;;;13.02;76.60
40692;BME280;26377;53.344;14.886;2022-10-28T03:36:59;101909.64;;;13.02;76.66
40692;BME280;26377;53.344;14.886;2022-10-28T03:39:26;101906.98;;;13.02;76.64
40692;BME280;26377;53.344;14.886;2022-10-28T03:41:53;101911.52;;;13.00;76.61
40692;BME280;26377;53.344;14.886;2022-10-28T03:44:21;101915.52;;;13.00;76.64
40692;BME280;26377;53.344;14.886;2022-10-28T03:46:50;101907.20;;;12.98;76.58
40692;BME280;26377;53.344;14.886;2022-10-28T03:49:19;101913.88;;;12.96;76.55
40692;BME280;26377;53.344;14.886;2022-10-28T03:51:46;101910.89;;;12.93;76.60
40692;BME280;26377;53.344;14.886;2022-10-28T03:54:14;101917.06;;;12.94;76.62
40692;BME280;26377;53.344;14.886;2022-10-28T03:56:41;101912.73;;;12.91;76.57
40692;BME280;26377;53.344;14.886;2022-10-28T03:59:10;101905.74;;;12.89;76.56
40692;BME280;26377;53.344;14.886;2022-10-28T04:01:37;101907.23;;;12.86;76.51
40692;BME280;26377;53.344;14.886;2022-10-28T04:04:04;101907.74;;;12.84;76.50
40692;BME280;26377;53.344;14.886;2022-10-28T04:06:34;101915.34;;;12.83;76.54
40692;BME280;26377;53.344;14.886;2022-10-28T04:09:02;101910.56;;;12.81;76.55
40692;BME280;26377;53.344;14.886;2022-10-28T04:11:32;101906.62;;;12.79;76.52
40692;BME280;26377;53.344;14.886;2022-10-28T04:14:00;101920.55;;;12.76;76.54
40692;BME280;26377;53.344;14.886;2022-10-28T04:16:32;101910.34;;;12.75;76.54
40692;BME280;26377;53.344;14.886;2022-10-28T04:19:00;101906.47;;;12.72;76.52
40692;BME280;26377;53.344;14.886;2022-10-28T04:21:29;101896.82;;;12.70;76.49
40692;BME280;26377;53.344;14.886;2022-10-28T04:23:58;101909.34;;;12.68;76.52
40692;BME280;26377;53.344;14.886;2022-10-28T04:26:27;101906.80;;;12.65;76.54
40692;BME280;26377;53.344;14.886;2022-10-28T04:28:58;101900.27;;;12.62;76.53
40692;BME280;26377;53.344;14.886;2022-10-28T04:31:25;101897.75;;;12.59;76.54
40692;BME280;26377;53.344;14.886;2022-10-28T04:33:52;101887.77;;;12.54;76.48
40692;BME280;26377;53.344;14.886;2022-10-28T04:36:20;101888.83;;;12.50;76.48
40692;BME280;26377;53.344;14.886;2022-10-28T04:38:50;101884.50;;;12.47;76.50
40692;BME280;26377;53.344;14.886;2022-10-28T04:41:17;101874.45;;;12.44;76.54
40692;BME280;26377;53.344;14.886;2022-10-28T04:43:46;101876.69;;;12.43;76.57
40692;BME280;26377;53.344;14.886;2022-10-28T04:46:13;101871.91;;;12.41;76.61
40692;BME280;26377;53.344;14.886;2022-10-28T04:48:40;101880.34;;;12.40;76.63
40692;BME280;26377;53.344;14.886;2022-10-28T04:51:07;101876.89;;;12.38;76.64
40692;BME280;26377;53.344;14.886;2022-10-28T04:53:34;101869.42;;;12.36;76.67
40692;BME280;26377;53.344;14.886;2022-10-28T04:56:03;101872.56;;;12.36;76.64
40692;BME280;26377;53.344;14.886;2022-10-28T04:58:32;101859.86;;;12.32;76.64
40692;BME280;26377;53.344;14.886;2022-10-28T05:01:08;101851.61;;;12.28;76.65
40692;BME280;26377;53.344;14.886;2022-10-28T05:03:36;101848.45;;;12.29;76.73
40692;BME280;26377;53.344;14.886;2022-10-28T05:06:03;101847.22;;;12.27;76.79
40692;BME280;26377;53.344;14.886;2022-10-28T05:08:31;101848.13;;;12.26;76.87
40692;BME280;26377;53.344;14.886;2022-10-28T05:11:00;101848.95;;;12.28;76.91
40692;BME280;26377;53.344;14.886;2022-10-28T05:13:28;101845.80;;;12.29;76.98
40692;BME280;26377;53.344;14.886;2022-10-28T05:15:55;101851.06;;;12.30;77.00
40692;BME280;26377;53.344;14.886;2022-10-28T05:18:22;101851.45;;;12.31;77.04
40692;BME280;26377;53.344;14.886;2022-10-28T05:20:49;101843.95;;;12.31;77.03
40692;BME280;26377;53.344;14.886;2022-10-28T05:23:18;101859.38;;;12.33;77.05
40692;BME280;26377;53.344;14.886;2022-10-28T05:25:45;101878.49;;;12.32;77.08
40692;BME280;26377;53.344;14.886;2022-10-28T05:28:12;101866.91;;;12.33;77.08
40692;BME280;26377;53.344;14.886;2022-10-28T05:30:41;101872.23;;;12.33;77.03
40692;BME280;26377;53.344;14.886;2022-10-28T05:33:11;101883.48;;;12.30;76.85
40692;BME280;26377;53.344;14.886;2022-10-28T05:35:38;101898.34;;;12.24;76.84
40692;BME280;26377;53.344;14.886;2022-10-28T05:38:07;101890.56;;;12.19;76.90
40692;BME280;26377;53.344;14.886;2022-10-28T05:40:35;101895.66;;;12.14;76.84
40692;BME280;26377;53.344;14.886;2022-10-28T05:43:03;101899.25;;;12.13;76.91
40692;BME280;26377;53.344;14.886;2022-10-28T05:45:30;101895.38;;;12.10;76.93
40692;BME280;26377;53.344;14.886;2022-10-28T05:47:59;101891.92;;;12.08;76.94
40692;BME280;26377;53.344;14.886;2022-10-28T05:50:26;101883.66;;;12.04;76.94
40692;BME280;26377;53.344;14.886;2022-10-28T05:52:55;101882.92;;;12.00;76.89
40692;BME280;26377;53.344;14.886;2022-10-28T05:55:26;101881.77;;;11.96;76.85
40692;BME280;26377;53.344;14.886;2022-10-28T05:57:55;101878.81;;;11.92;76.79
40692;BME280;26377;53.344;14.886;2022-10-28T06:00:24;101877.20;;;11.88;76.76
40692;BME280;26377;53.344;14.886;2022-10-28T06:02:51;101868.49;;;11.84;76.72
40692;BME280;26377;53.344;14.886;2022-10-28T06:05:18;101866.88;;;11.80;76.68
40692;BME280;26377;53.344;14.886;2022-10-28T06:07:46;101870.52;;;11.78;76.69
40692;BME280;26377;53.344;14.886;2022-10-28T06:10:13;101872.98;;;11.72;76.60
40692;BME280;26377;53.344;14.886;2022-10-28T06:12:40;101875.30;;;11.70;76.75
40692;BME280;26377;53.344;14.886;2022-10-28T06:15:08;101877.87;;;11.71;76.86
40692;BME280;26377;53.344;14.886;2022-10-28T06:17:36;101880.02;;;11.73;76.96
40692;BME280;26377;53.344;14.886;2022-10-28T06:20:05;101868.34;;;11.77;77.06
40692;BME280;26377;53.344;14.886;2022-10-28T06:22:33;101851.41;;;11.80;77.11
40692;BME280;26377;53.344;14.886;2022-10-28T06:25:00;101850.42;;;11.82;77.11
40692;BME280;26377;53.344;14.886;2022-10-28T06:27:28;101841.40;;;11.86;77.16
40692;BME280;26377;53.344;14.886;2022-10-28T06:29:56;101850.56;;;11.89;77.24
40692;BME280;26377;53.344;14.886;2022-10-28T06:32:23;101857.55;;;11.92;77.24
40692;BME280;26377;53.344;14.886;2022-10-28T06:34:51;101866.20;;;11.97;77.32
40692;BME280;26377;53.344;14.886;2022-10-28T06:37:17;101858.90;;;12.02;77.41
40692;BME280;26377;53.344;14.886;2022-10-28T06:39:46;101859.61;;;12.07;77.49
40692;BME280;26377;53.344;14.886;2022-10-28T06:42:16;101864.19;;;12.13;77.54
40692;BME280;26377;53.344;14.886;2022-10-28T06:44:43;101862.69;;;12.18;77.58
40692;BME280;26377;53.344;14.886;2022-10-28T06:47:10;101867.80;;;12.22;77.61
40692;BME280;26377;53.344;14.886;2022-10-28T06:49:37;101866.23;;;12.28;77.66
40692;BME280;26377;53.344;14.886;2022-10-28T06:52:04;101855.33;;;12.34;77.73
40692;BME280;26377;53.344;14.886;2022-10-28T06:54:32;101851.95;;;12.41;77.77
40692;BME280;26377;53.344;14.886;2022-10-28T06:56:59;101849.41;;;12.48;77.87
40692;BME280;26377;53.344;14.886;2022-10-28T06:59:28;101849.95;;;12.56;77.92
40692;BME280;26377;53.344;14.886;2022-10-28T07:01:56;101849.17;;;12.64;77.99
40692;BME280;26377;53.344;14.886;2022-10-28T07:04:23;101850.95;;;12.73;78.04
40692;BME280;26377;53.344;14.886;2022-10-28T07:06:56;101852.36;;;12.82;78.09
40692;BME280;26377;53.344;14.886;2022-10-28T07:09:23;101850.23;;;12.90;78.14
40692;BME280;26377;53.344;14.886;2022-10-28T07:11:51;101850.58;;;13.03;78.22
40692;BME280;26377;53.344;14.886;2022-10-28T07:14:18;101854.95;;;13.14;78.34
40692;BME280;26377;53.344;14.886;2022-10-28T07:16:47;101845.86;;;13.28;78.39
40692;BME280;26377;53.344;14.886;2022-10-28T07:19:14;101856.42;;;13.39;78.36
40692;BME280;26377;53.344;14.886;2022-10-28T07:21:41;101849.27;;;13.50;78.36
40692;BME280;26377;53.344;14.886;2022-10-28T07:24:08;101848.28;;;13.61;78.41
40692;BME280;26377;53.344;14.886;2022-10-28T07:26:37;101850.05;;;13.70;78.36
40692;BME280;26377;53.344;14.886;2022-10-28T07:29:04;101850.56;;;13.78;78.40
40692;BME280;26377;53.344;14.886;2022-10-28T07:31:31;101848.30;;;13.88;78.36
40692;BME280;26377;53.344;14.886;2022-10-28T07:33:58;101849.75;;;13.95;78.33
40692;BME280;26377;53.344;14.886;2022-10-28T07:36:27;101846.31;;;14.01;78.29
40692;BME280;26377;53.344;14.886;2022-10-28T07:38:54;101842.52;;;14.05;78.16
40692;BME280;26377;53.344;14.886;2022-10-28T07:41:21;101841.44;;;14.09;78.17
40692;BME280;26377;53.344;14.886;2022-10-28T07:43:48;101844.14;;;14.18;78.17
40692;BME280;26377;53.344;14.886;2022-10-28T07:46:16;101848.11;;;14.28;78.18
40692;BME280;26377;53.344;14.886;2022-10-28T07:48:47;101840.41;;;14.39;78.21
40692;BME280;26377;53.344;14.886;2022-10-28T07:51:15;101837.66;;;14.49;78.19
40692;BME280;26377;53.344;14.886;2022-10-28T07:53:42;101852.76;;;14.58;78.12
40692;BME280;26377;53.344;14.886;2022-10-28T07:56:11;101857.55;;;14.69;78.08
40692;BME280;26377;53.344;14.886;2022-10-28T07:58:40;101858.00;;;14.77;78.07
40692;BME280;26377;53.344;14.886;2022-10-28T08:03:36;101870.48;;;15.02;78.11
40692;BME280;26377;53.344;14.886;2022-10-28T08:06:13;101869.12;;;15.10;78.03
40692;BME280;26377;53.344;14.886;2022-10-28T08:08:38;101873.22;;;15.17;77.97
40692;BME280;26377;53.344;14.886;2022-10-28T08:13:39;101867.30;;;15.28;77.91
40692;BME280;26377;53.344;14.886;2022-10-28T08:16:07;101868.38;;;15.32;77.77
40692;BME280;26377;53.344;14.886;2022-10-28T08:18:35;101875.86;;;15.34;77.67
40692;BME280;26377;53.344;14.886;2022-10-28T08:21:06;101880.09;;;15.38;77.67
40692;BME280;26377;53.344;14.886;2022-10-28T08:23:39;101881.59;;;15.44;77.61
40692;BME280;26377;53.344;14.886;2022-10-28T08:26:12;101889.76;;;15.49;77.59
40692;BME280;26377;53.344;14.886;2022-10-28T08:28:41;101877.00;;;15.54;77.48
40692;BME280;26377;53.344;14.886;2022-10-28T08:31:09;101879.10;;;15.56;77.35
40692;BME280;26377;53.344;14.886;2022-10-28T08:33:40;101878.06;;;15.59;77.28
40692;BME280;26377;53.344;14.886;2022-10-28T08:36:13;101890.90;;;15.61;77.22
40692;BME280;26377;53.344;14.886;2022-10-28T08:38:46;101894.91;;;15.61;77.14
40692;BME280;26377;53.344;14.886;2022-10-28T08:41:20;101905.92;;;15.63;77.10
40692;BME280;26377;53.344;14.886;2022-10-28T08:50:10;101928.47;;;15.66;77.01
40692;BME280;26377;53.344;14.886;2022-10-28T08:52:57;101946.27;;;15.67;76.95
40692;BME280;26377;53.344;14.886;2022-10-28T08:55:42;101956.02;;;15.68;76.94
40692;BME280;26377;53.344;14.886;2022-10-28T08:58:15;101955.95;;;15.70;76.87
40692;BME280;26377;53.344;14.886;2022-10-28T09:00:56;101953.27;;;15.70;76.80
40692;BME280;26377;53.344;14.886;2022-10-28T09:03:32;101947.42;;;15.70;76.77
40692;BME280;26377;53.344;14.886;2022-10-28T09:06:06;101943.41;;;15.70;76.76
40692;BME280;26377;53.344;14.886;2022-10-28T09:08:39;101942.37;;;15.73;76.74
40692;BME280;26377;53.344;14.886;2022-10-28T09:17:32;101924.33;;;15.85;76.76
40692;BME280;26377;53.344;14.886;2022-10-28T09:23:31;101911.20;;;15.96;76.71
40692;BME280;26377;53.344;14.886;2022-10-28T09:28:57;101913.03;;;16.11;76.77
40692;BME280;26377;53.344;14.886;2022-10-28T09:31:33;101904.15;;;16.17;76.73
40692;BME280;26377;53.344;14.886;2022-10-28T09:37:26;101886.05;;;16.29;76.65
40692;BME280;26377;53.344;14.886;2022-10-28T09:40:06;101874.30;;;16.32;76.54
40692;BME280;26377;53.344;14.886;2022-10-28T09:45:45;101856.98;;;16.30;76.37
40692;BME280;26377;53.344;14.886;2022-10-28T09:48:18;101855.92;;;16.26;76.30
40692;BME280;26377;53.344;14.886;2022-10-28T09:51:00;101861.36;;;16.24;76.24
40692;BME280;26377;53.344;14.886;2022-10-28T09:53:41;101851.61;;;16.23;76.26
40692;BME280;26377;53.344;14.886;2022-10-28T09:56:10;101836.09;;;16.21;76.21
40692;BME280;26377;53.344;14.886;2022-10-28T09:58:40;101838.68;;;16.23;76.26
40692;BME280;26377;53.344;14.886;2022-10-28T10:01:13;101837.09;;;16.27;76.31
40692;BME280;26377;53.344;14.886;2022-10-28T10:03:50;101838.23;;;16.30;76.21
40692;BME280;26377;53.344;14.886;2022-10-28T10:06:19;101835.67;;;16.36;76.27
40692;BME280;26377;53.344;14.886;2022-10-28T10:08:49;101831.91;;;16.40;76.25
40692;BME280;26377;53.344;14.886;2022-10-28T10:11:37;101831.57;;;16.53;76.37
40692;BME280;26377;53.344;14.886;2022-10-28T10:14:18;101830.17;;;16.75;76.63
40692;BME280;26377;53.344;14.886;2022-10-28T10:16:52;101831.83;;;16.92;76.44
40692;BME280;26377;53.344;14.886;2022-10-28T10:19:27;101829.92;;;17.01;76.45
40692;BME280;26377;53.344;14.886;2022-10-28T10:21:54;101828.10;;;17.22;76.57
40692;BME280;26377;53.344;14.886;2022-10-28T10:24:33;101831.78;;;17.42;76.52
40692;BME280;26377;53.344;14.886;2022-10-28T10:27:13;101837.04;;;17.51;76.32
40692;BME280;26377;53.344;14.886;2022-10-28T10:29:46;101841.16;;;17.56;76.17
40692;BME280;26377;53.344;14.886;2022-10-28T10:32:29;101835.77;;;17.63;76.06
40692;BME280;26377;53.344;14.886;2022-10-28T10:37:35;101825.47;;;17.84;76.09
40692;BME280;26377;53.344;14.886;2022-10-28T10:40:22;101826.95;;;17.95;75.99
40692;BME280;26377;53.344;14.886;2022-10-28T10:42:53;101827.55;;;18.19;76.07
40692;BME280;26377;53.344;14.886;2022-10-28T10:45:26;101823.81;;;18.48;76.08
40692;BME280;26377;53.344;14.886;2022-10-28T10:48:12;101822.50;;;18.73;75.96
40692;BME280;26377;53.344;14.886;2022-10-28T10:50:42;101822.57;;;18.91;75.72
40692;BME280;26377;53.344;14.886;2022-10-28T10:53:23;101821.55;;;19.12;75.45
40692;BME280;26377;53.344;14.886;2022-10-28T10:55:54;101819.04;;;19.28;75.31
40692;BME280;26377;53.344;14.886;2022-10-28T10:58:32;101824.47;;;19.52;75.30
40692;BME280;26377;53.344;14.886;2022-10-28T11:01:03;101826.96;;;19.91;75.03
40692;BME280;26377;53.344;14.886;2022-10-28T11:03:46;101826.96;;;19.91;75.03
40692;BME280;26377;53.344;14.886;2022-10-28T11:06:32;101817.06;;;19.97;74.44
40692;BME280;26377;53.344;14.886;2022-10-28T11:09:01;101813.14;;;20.08;74.27
40692;BME280;26377;53.344;14.886;2022-10-28T11:11:32;101808.73;;;20.12;73.90
40692;BME280;26377;53.344;14.886;2022-10-28T11:14:17;101800.19;;;20.13;73.76
40692;BME280;26377;53.344;14.886;2022-10-28T11:19:30;101820.83;;;20.30;73.36
40692;BME280;26377;53.344;14.886;2022-10-28T11:25:18;101808.98;;;20.44;73.02
40692;BME280;26377;53.344;14.886;2022-10-28T11:33:48;101807.58;;;20.22;72.10
40692;BME280;26377;53.344;14.886;2022-10-28T11:36:36;101796.18;;;20.06;71.87
40692;BME280;26377;53.344;14.886;2022-10-28T11:39:19;101799.55;;;19.91;71.65
40692;BME280;26377;53.344;14.886;2022-10-28T11:47:53;101769.16;;;19.89;71.53
40692;BME280;26377;53.344;14.886;2022-10-28T11:59:35;101746.27;;;19.89;71.11
40692;BME280;26377;53.344;14.886;2022-10-28T12:04:55;101731.95;;;20.12;71.20
40692;BME280;26377;53.344;14.886;2022-10-28T12:21:42;101733.23;;;19.78;70.93
40692;BME280;26377;53.344;14.886;2022-10-28T12:24:16;101730.33;;;19.81;70.84
40692;BME280;26377;53.344;14.886;2022-10-28T12:26:59;101726.03;;;19.78;70.66
40692;BME280;26377;53.344;14.886;2022-10-28T12:29:28;101727.52;;;19.82;70.76
40692;BME280;26377;53.344;14.886;2022-10-28T12:32:06;101727.02;;;19.83;70.69
40692;BME280;26377;53.344;14.886;2022-10-28T12:34:39;101719.95;;;19.87;70.72
40692;BME280;26377;53.344;14.886;2022-10-28T12:37:13;101711.43;;;20.04;70.73
40692;BME280;26377;53.344;14.886;2022-10-28T12:39:55;101707.73;;;20.23;70.69
40692;BME280;26377;53.344;14.886;2022-10-28T12:42:31;101709.97;;;20.29;70.43
40692;BME280;26377;53.344;14.886;2022-10-28T12:45:00;101697.73;;;20.42;70.47
40692;BME280;26377;53.344;14.886;2022-10-28T12:50:28;101695.94;;;20.59;70.00
40692;BME280;26377;53.344;14.886;2022-10-28T12:56:00;101694.36;;;20.73;69.90
40692;BME280;26377;53.344;14.886;2022-10-28T13:01:27;101699.01;;;20.76;69.44
40692;BME280;26377;53.344;14.886;2022-10-28T13:04:00;101698.62;;;20.64;69.25
40692;BME280;26377;53.344;14.886;2022-10-28T13:21:57;101670.17;;;20.38;68.94
40692;BME280;26377;53.344;14.886;2022-10-28T13:27:26;101672.02;;;20.43;69.12
40692;BME280;26377;53.344;14.886;2022-10-28T13:29:57;101671.76;;;20.46;69.03
40692;BME280;26377;53.344;14.886;2022-10-28T13:32:38;101666.50;;;20.50;68.96
40692;BME280;26377;53.344;14.886;2022-10-28T13:35:23;101663.33;;;20.51;68.94
40692;BME280;26377;53.344;14.886;2022-10-28T13:37:53;101665.55;;;20.51;68.88
40692;BME280;26377;53.344;14.886;2022-10-28T13:43:18;101653.64;;;20.48;68.83
40692;BME280;26377;53.344;14.886;2022-10-28T13:45:50;101660.27;;;20.50;68.79
40692;BME280;26377;53.344;14.886;2022-10-28T13:48:31;101646.55;;;20.47;68.67
40692;BME280;26377;53.344;14.886;2022-10-28T13:53:56;101643.83;;;20.42;68.68
40692;BME280;26377;53.344;14.886;2022-10-28T13:56:42;101643.70;;;20.38;68.61
40692;BME280;26377;53.344;14.886;2022-10-28T13:59:22;101644.08;;;20.33;68.57
40692;BME280;26377;53.344;14.886;2022-10-28T14:02:01;101638.55;;;20.29;68.62
40692;BME280;26377;53.344;14.886;2022-10-28T14:04:36;101636.71;;;20.24;68.60
40692;BME280;26377;53.344;14.886;2022-10-28T14:09:41;101638.27;;;20.16;68.63
40692;BME280;26377;53.344;14.886;2022-10-28T14:14:57;101624.62;;;20.01;68.57
40692;BME280;26377;53.344;14.886;2022-10-28T14:17:48;101622.40;;;20.00;68.71
40692;BME280;26377;53.344;14.886;2022-10-28T14:20:42;101625.46;;;19.96;68.77
40692;BME280;26377;53.344;14.886;2022-10-28T14:26:01;101624.45;;;19.86;68.84
40692;BME280;26377;53.344;14.886;2022-10-28T14:33:50;101624.77;;;19.70;69.05
40692;BME280;26377;53.344;14.886;2022-10-28T14:36:46;101626.08;;;19.65;69.06
40692;BME280;26377;53.344;14.886;2022-10-28T14:45:13;101623.06;;;19.46;69.06
40692;BME280;26377;53.344;14.886;2022-10-28T14:50:49;101618.48;;;19.30;69.00
40692;BME280;26377;53.344;14.886;2022-10-28T14:53:24;101619.49;;;19.22;69.03
40692;BME280;26377;53.344;14.886;2022-10-28T14:55:59;101621.16;;;19.17;69.02
40692;BME280;26377;53.344;14.886;2022-10-28T14:58:39;101623.84;;;19.12;68.98
40692;BME280;26377;53.344;14.886;2022-10-28T15:09:12;101618.52;;;18.87;69.14
40692;BME280;26377;53.344;14.886;2022-10-28T15:11:47;101618.40;;;18.83;69.21
40692;BME280;26377;53.344;14.886;2022-10-28T15:14:53;101608.06;;;18.77;69.20
40692;BME280;26377;53.344;14.886;2022-10-28T15:17:28;101615.97;;;18.73;69.24
40692;BME280;26377;53.344;14.886;2022-10-28T15:19:59;101618.75;;;18.66;69.30
40692;BME280;26377;53.344;14.886;2022-10-28T15:22:29;101617.45;;;18.59;69.31
40692;BME280;26377;53.344;14.886;2022-10-28T15:25:00;101621.93;;;18.53;69.33
40692;BME280;26377;53.344;14.886;2022-10-28T15:27:39;101614.31;;;18.47;69.38
40692;BME280;26377;53.344;14.886;2022-10-28T15:30:22;101612.05;;;18.41;69.39
40692;BME280;26377;53.344;14.886;2022-10-28T15:32:53;101617.96;;;18.33;69.39
40692;BME280;26377;53.344;14.886;2022-10-28T15:35:35;101614.44;;;18.26;69.43
40692;BME280;26377;53.344;14.886;2022-10-28T15:41:38;101613.71;;;18.11;69.56
40692;BME280;26377;53.344;14.886;2022-10-28T15:44:03;101610.19;;;18.04;69.67
40692;BME280;26377;53.344;14.886;2022-10-28T15:46:31;101610.62;;;17.98;69.71
40692;BME280;26377;53.344;14.886;2022-10-28T15:49:01;101608.47;;;17.90;69.76
40692;BME280;26377;53.344;14.886;2022-10-28T15:51:30;101612.93;;;17.84;69.84
40692;BME280;26377;53.344;14.886;2022-10-28T15:54:15;101609.03;;;17.76;69.89
40692;BME280;26377;53.344;14.886;2022-10-28T15:56:55;101603.62;;;17.70;69.95
40692;BME280;26377;53.344;14.886;2022-10-28T15:59:25;101604.78;;;17.66;70.05
40692;BME280;26377;53.344;14.886;2022-10-28T16:01:54;101596.19;;;17.61;70.15
40692;BME280;26377;53.344;14.886;2022-10-28T16:07:09;101598.80;;;17.56;70.30
40692;BME280;26377;53.344;14.886;2022-10-28T16:09:49;101596.81;;;17.52;70.38
40692;BME280;26377;53.344;14.886;2022-10-28T16:12:17;101601.80;;;17.51;70.45
40692;BME280;26377;53.344;14.886;2022-10-28T16:14:52;101597.38;;;17.50;70.54
40692;BME280;26377;53.344;14.886;2022-10-28T16:17:29;101594.42;;;17.48;70.58
40692;BME280;26377;53.344;14.886;2022-10-28T16:19:57;101592.34;;;17.46;70.63